sensor_id;sensor_type;location;lat;lon;timestamp;P1;durP1;ratioP1;P2;durP2;ratioP2
45684;SDS011;46836;48.388;16.210;2023-04-10T00:00:31;20.55;;;12.75;;
45684;SDS011;46836;48.388;16.210;2023-04-10T00:02:58;22.17;;;13.23;;
45684;SDS011;46836;48.388;16.210;2023-04-10T00:05:29;20.58;;;13.88;;
45684;SDS011;46836;48.388;16.210;2023-04-10T00:07:56;19.92;;;13.60;;
45684;SDS011;46836;48.388;16.210;2023-04-10T00:10:23;21.90;;;13.30;;
45684;SDS011;46836;48.388;16.210;2023-04-10T00:12:51;18.70;;;13.27;;
45684;SDS011;46836;48.388;16.210;2023-04-10T00:15:19;23.15;;;15.20;;
45684;SDS011;46836;48.388;16.210;2023-04-10T00:17:46;20.25;;;12.77;;
45684;SDS011;46836;48.388;16.210;2023-04-10T00:20:16;19.98;;;14.32;;
45684;SDS011;46836;48.388;16.210;2023-04-10T00:22:43;19.05;;;13.25;;
45684;SDS011;46836;48.388;16.210;2023-04-10T00:25:10;21.25;;;14.52;;
45684;SDS011;46836;48.388;16.210;2023-04-10T00:27:37;21.95;;;14.23;;
45684;SDS011;46836;48.388;16.210;2023-04-10T00:30:04;23.15;;;14.90;;
45684;SDS011;46836;48.388;16.210;2023-04-10T00:32:32;24.55;;;15.52;;
45684;SDS011;46836;48.388;16.210;2023-04-10T00:34:59;24.25;;;15.65;;
45684;SDS011;46836;48.388;16.210;2023-04-10T00:37:26;24.88;;;16.38;;
45684;SDS011;46836;48.388;16.210;2023-04-10T00:39:54;22.95;;;13.90;;
45684;SDS011;46836;48.388;16.210;2023-04-10T00:42:21;21.73;;;14.63;;
45684;SDS011;46836;48.388;16.210;2023-04-10T00:44:48;25.30;;;15.93;;
45684;SDS011;46836;48.388;16.210;2023-04-10T00:47:15;25.73;;;14.82;;
45684;SDS011;46836;48.388;16.210;2023-04-10T00:49:43;23.20;;;15.23;;
45684;SDS011;46836;48.388;16.210;2023-04-10T00:52:10;21.48;;;14.68;;
45684;SDS011;46836;48.388;16.210;2023-04-10T00:54:38;22.98;;;14.48;;
45684;SDS011;46836;48.388;16.210;2023-04-10T00:57:05;22.38;;;15.05;;
45684;SDS011;46836;48.388;16.210;2023-04-10T00:59:33;27.30;;;15.85;;
45684;SDS011;46836;48.388;16.210;2023-04-10T01:02:01;22.83;;;14.60;;
45684;SDS011;46836;48.388;16.210;2023-04-10T01:04:29;19.70;;;14.55;;
45684;SDS011;46836;48.388;16.210;2023-04-10T01:07:05;22.65;;;13.80;;
45684;SDS011;46836;48.388;16.210;2023-04-10T01:09:46;21.88;;;13.52;;
45684;SDS011;46836;48.388;16.210;2023-04-10T01:15:12;23.77;;;14.63;;
45684;SDS011;46836;48.388;16.210;2023-04-10T01:20:30;22.55;;;13.85;;
45684;SDS011;46836;48.388;16.210;2023-04-10T01:31:33;20.15;;;13.10;;
45684;SDS011;46836;48.388;16.210;2023-04-10T01:34:18;23.25;;;14.90;;
45684;SDS011;46836;48.388;16.210;2023-04-10T01:36:57;21.52;;;14.95;;
45684;SDS011;46836;48.388;16.210;2023-04-10T01:39:27;19.13;;;13.02;;
45684;SDS011;46836;48.388;16.210;2023-04-10T01:41:56;21.30;;;14.07;;
45684;SDS011;46836;48.388;16.210;2023-04-10T01:44:28;21.45;;;14.05;;
45684;SDS011;46836;48.388;16.210;2023-04-10T01:46:57;25.42;;;13.35;;
45684;SDS011;46836;48.388;16.210;2023-04-10T01:49:26;24.35;;;15.20;;
45684;SDS011;46836;48.388;16.210;2023-04-10T01:51:55;20.27;;;14.25;;
45684;SDS011;46836;48.388;16.210;2023-04-10T01:54:29;26.30;;;16.15;;
45684;SDS011;46836;48.388;16.210;2023-04-10T01:57:01;21.70;;;15.20;;
45684;SDS011;46836;48.388;16.210;2023-04-10T01:59:30;22.58;;;14.48;;
45684;SDS011;46836;48.388;16.210;2023-04-10T02:01:57;25.30;;;16.13;;
45684;SDS011;46836;48.388;16.210;2023-04-10T02:04:26;25.27;;;15.93;;
45684;SDS011;46836;48.388;16.210;2023-04-10T02:07:00;23.25;;;14.73;;
45684;SDS011;46836;48.388;16.210;2023-04-10T02:12:31;24.85;;;15.75;;
45684;SDS011;46836;48.388;16.210;2023-04-10T02:15:04;24.35;;;15.02;;
45684;SDS011;46836;48.388;16.210;2023-04-10T02:17:40;22.67;;;14.52;;
45684;SDS011;46836;48.388;16.210;2023-04-10T02:20:08;24.92;;;14.57;;
45684;SDS011;46836;48.388;16.210;2023-04-10T02:22:36;21.23;;;14.20;;
45684;SDS011;46836;48.388;16.210;2023-04-10T02:25:06;23.58;;;14.52;;
45684;SDS011;46836;48.388;16.210;2023-04-10T02:27:34;21.83;;;13.60;;
45684;SDS011;46836;48.388;16.210;2023-04-10T02:30:02;18.27;;;12.68;;
45684;SDS011;46836;48.388;16.210;2023-04-10T02:32:31;19.88;;;13.63;;
45684;SDS011;46836;48.388;16.210;2023-04-10T02:34:58;23.25;;;15.05;;
45684;SDS011;46836;48.388;16.210;2023-04-10T02:37:27;24.92;;;15.10;;
45684;SDS011;46836;48.388;16.210;2023-04-10T02:39:54;21.02;;;13.65;;
45684;SDS011;46836;48.388;16.210;2023-04-10T02:42:22;19.48;;;13.13;;
45684;SDS011;46836;48.388;16.210;2023-04-10T02:44:49;20.77;;;14.40;;
45684;SDS011;46836;48.388;16.210;2023-04-10T02:47:16;22.60;;;14.60;;
45684;SDS011;46836;48.388;16.210;2023-04-10T02:49:44;21.92;;;13.32;;
45684;SDS011;46836;48.388;16.210;2023-04-10T02:52:11;16.65;;;12.30;;
45684;SDS011;46836;48.388;16.210;2023-04-10T02:54:38;21.88;;;14.32;;
45684;SDS011;46836;48.388;16.210;2023-04-10T02:57:06;22.80;;;14.80;;
45684;SDS011;46836;48.388;16.210;2023-04-10T02:59:33;20.35;;;14.35;;
45684;SDS011;46836;48.388;16.210;2023-04-10T03:02:00;20.05;;;14.10;;
45684;SDS011;46836;48.388;16.210;2023-04-10T03:04:27;20.05;;;13.90;;
45684;SDS011;46836;48.388;16.210;2023-04-10T03:06:56;17.77;;;11.90;;
45684;SDS011;46836;48.388;16.210;2023-04-10T03:09:24;20.60;;;13.65;;
45684;SDS011;46836;48.388;16.210;2023-04-10T03:11:51;18.98;;;12.88;;
45684;SDS011;46836;48.388;16.210;2023-04-10T03:14:18;19.10;;;13.00;;
45684;SDS011;46836;48.388;16.210;2023-04-10T03:16:46;18.50;;;11.85;;
45684;SDS011;46836;48.388;16.210;2023-04-10T03:19:13;16.35;;;11.70;;
45684;SDS011;46836;48.388;16.210;2023-04-10T03:21:40;19.00;;;12.02;;
45684;SDS011;46836;48.388;16.210;2023-04-10T03:24:07;21.23;;;13.82;;
45684;SDS011;46836;48.388;16.210;2023-04-10T03:26:34;20.05;;;11.65;;
45684;SDS011;46836;48.388;16.210;2023-04-10T03:29:01;16.70;;;12.00;;
45684;SDS011;46836;48.388;16.210;2023-04-10T03:31:29;19.23;;;12.25;;
45684;SDS011;46836;48.388;16.210;2023-04-10T03:33:56;15.60;;;11.45;;
45684;SDS011;46836;48.388;16.210;2023-04-10T03:36:23;17.98;;;11.80;;
45684;SDS011;46836;48.388;16.210;2023-04-10T03:38:50;16.15;;;11.98;;
45684;SDS011;46836;48.388;16.210;2023-04-10T03:41:18;19.58;;;12.23;;
45684;SDS011;46836;48.388;16.210;2023-04-10T03:43:45;20.33;;;12.50;;
45684;SDS011;46836;48.388;16.210;2023-04-10T03:46:12;21.65;;;11.95;;
45684;SDS011;46836;48.388;16.210;2023-04-10T03:48:39;22.20;;;13.45;;
45684;SDS011;46836;48.388;16.210;2023-04-10T03:51:06;17.88;;;11.25;;
45684;SDS011;46836;48.388;16.210;2023-04-10T03:53:33;18.38;;;12.52;;
45684;SDS011;46836;48.388;16.210;2023-04-10T03:56:02;19.30;;;12.82;;
45684;SDS011;46836;48.388;16.210;2023-04-10T03:58:29;17.85;;;12.18;;
45684;SDS011;46836;48.388;16.210;2023-04-10T04:00:56;17.77;;;11.60;;
45684;SDS011;46836;48.388;16.210;2023-04-10T04:03:23;20.42;;;11.73;;
45684;SDS011;46836;48.388;16.210;2023-04-10T04:05:51;14.55;;;10.85;;
45684;SDS011;46836;48.388;16.210;2023-04-10T04:08:17;20.15;;;12.15;;
45684;SDS011;46836;48.388;16.210;2023-04-10T04:10:44;16.83;;;11.15;;
45684;SDS011;46836;48.388;16.210;2023-04-10T04:13:12;18.10;;;11.35;;
45684;SDS011;46836;48.388;16.210;2023-04-10T04:15:38;16.02;;;11.35;;
45684;SDS011;46836;48.388;16.210;2023-04-10T04:18:06;16.70;;;10.98;;
45684;SDS011;46836;48.388;16.210;2023-04-10T04:20:34;16.42;;;11.23;;
45684;SDS011;46836;48.388;16.210;2023-04-10T04:23:01;17.85;;;11.10;;
45684;SDS011;46836;48.388;16.210;2023-04-10T04:25:28;17.02;;;10.27;;
45684;SDS011;46836;48.388;16.210;2023-04-10T04:27:55;18.40;;;11.35;;
45684;SDS011;46836;48.388;16.210;2023-04-10T04:30:23;13.57;;;9.63;;
45684;SDS011;46836;48.388;16.210;2023-04-10T04:32:50;18.67;;;11.50;;
45684;SDS011;46836;48.388;16.210;2023-04-10T04:35:17;16.95;;;11.20;;
45684;SDS011;46836;48.388;16.210;2023-04-10T04:37:44;15.10;;;10.65;;
45684;SDS011;46836;48.388;16.210;2023-04-10T04:40:11;17.67;;;11.25;;
45684;SDS011;46836;48.388;16.210;2023-04-10T04:42:38;18.58;;;11.48;;
45684;SDS011;46836;48.388;16.210;2023-04-10T04:45:05;16.90;;;12.38;;
45684;SDS011;46836;48.388;16.210;2023-04-10T04:47:33;21.90;;;12.02;;
45684;SDS011;46836;48.388;16.210;2023-04-10T04:50:00;18.83;;;12.38;;
45684;SDS011;46836;48.388;16.210;2023-04-10T04:52:27;18.02;;;11.73;;
45684;SDS011;46836;48.388;16.210;2023-04-10T04:54:54;16.27;;;11.10;;
45684;SDS011;46836;48.388;16.210;2023-04-10T04:57:21;18.77;;;11.70;;
45684;SDS011;46836;48.388;16.210;2023-04-10T04:59:48;19.63;;;11.27;;
45684;SDS011;46836;48.388;16.210;2023-04-10T05:02:16;15.98;;;10.32;;
45684;SDS011;46836;48.388;16.210;2023-04-10T05:04:44;19.63;;;13.13;;
45684;SDS011;46836;48.388;16.210;2023-04-10T05:07:11;19.52;;;13.15;;
45684;SDS011;46836;48.388;16.210;2023-04-10T05:09:38;17.80;;;12.30;;
45684;SDS011;46836;48.388;16.210;2023-04-10T05:12:05;15.85;;;11.50;;
45684;SDS011;46836;48.388;16.210;2023-04-10T05:14:32;18.83;;;11.63;;
45684;SDS011;46836;48.388;16.210;2023-04-10T05:16:59;18.63;;;11.30;;
45684;SDS011;46836;48.388;16.210;2023-04-10T05:19:28;19.42;;;11.10;;
45684;SDS011;46836;48.388;16.210;2023-04-10T05:21:55;17.70;;;10.00;;
45684;SDS011;46836;48.388;16.210;2023-04-10T05:24:22;18.08;;;11.43;;
45684;SDS011;46836;48.388;16.210;2023-04-10T05:26:49;16.25;;;11.32;;
45684;SDS011;46836;48.388;16.210;2023-04-10T05:29:17;18.67;;;11.20;;
45684;SDS011;46836;48.388;16.210;2023-04-10T05:31:44;16.08;;;10.77;;
45684;SDS011;46836;48.388;16.210;2023-04-10T05:34:10;17.42;;;11.50;;
45684;SDS011;46836;48.388;16.210;2023-04-10T05:36:37;16.75;;;10.80;;
45684;SDS011;46836;48.388;16.210;2023-04-10T05:39:04;15.50;;;10.10;;
45684;SDS011;46836;48.388;16.210;2023-04-10T05:41:31;14.77;;;10.93;;
45684;SDS011;46836;48.388;16.210;2023-04-10T05:43:59;15.77;;;9.65;;
45684;SDS011;46836;48.388;16.210;2023-04-10T05:46:26;15.40;;;9.98;;
45684;SDS011;46836;48.388;16.210;2023-04-10T05:48:53;16.55;;;11.65;;
45684;SDS011;46836;48.388;16.210;2023-04-10T05:51:20;14.52;;;9.95;;
45684;SDS011;46836;48.388;16.210;2023-04-10T05:53:47;17.77;;;11.88;;
45684;SDS011;46836;48.388;16.210;2023-04-10T05:56:16;16.08;;;10.05;;
45684;SDS011;46836;48.388;16.210;2023-04-10T05:58:43;17.67;;;11.60;;
45684;SDS011;46836;48.388;16.210;2023-04-10T06:01:10;18.58;;;11.70;;
45684;SDS011;46836;48.388;16.210;2023-04-10T06:03:38;16.70;;;12.02;;
45684;SDS011;46836;48.388;16.210;2023-04-10T06:06:06;15.05;;;11.65;;
45684;SDS011;46836;48.388;16.210;2023-04-10T06:08:33;19.95;;;12.57;;
45684;SDS011;46836;48.388;16.210;2023-04-10T06:11:00;16.27;;;12.05;;
45684;SDS011;46836;48.388;16.210;2023-04-10T06:13:27;17.25;;;11.70;;
45684;SDS011;46836;48.388;16.210;2023-04-10T06:15:54;16.58;;;11.27;;
45684;SDS011;46836;48.388;16.210;2023-04-10T06:18:21;17.13;;;12.88;;
45684;SDS011;46836;48.388;16.210;2023-04-10T06:20:48;17.23;;;11.52;;
45684;SDS011;46836;48.388;16.210;2023-04-10T06:23:15;17.50;;;11.63;;
45684;SDS011;46836;48.388;16.210;2023-04-10T06:25:42;17.17;;;10.25;;
45684;SDS011;46836;48.388;16.210;2023-04-10T06:28:10;15.70;;;11.57;;
45684;SDS011;46836;48.388;16.210;2023-04-10T06:30:37;16.05;;;11.07;;
45684;SDS011;46836;48.388;16.210;2023-04-10T06:33:04;14.10;;;10.05;;
45684;SDS011;46836;48.388;16.210;2023-04-10T06:35:31;20.23;;;11.10;;
45684;SDS011;46836;48.388;16.210;2023-04-10T06:37:59;14.95;;;10.02;;
45684;SDS011;46836;48.388;16.210;2023-04-10T06:40:26;15.77;;;10.57;;
45684;SDS011;46836;48.388;16.210;2023-04-10T06:42:54;16.30;;;11.00;;
45684;SDS011;46836;48.388;16.210;2023-04-10T06:45:22;14.40;;;10.15;;
45684;SDS011;46836;48.388;16.210;2023-04-10T06:47:49;14.90;;;10.55;;
45684;SDS011;46836;48.388;16.210;2023-04-10T06:50:16;16.90;;;11.65;;
45684;SDS011;46836;48.388;16.210;2023-04-10T06:52:44;14.73;;;10.88;;
45684;SDS011;46836;48.388;16.210;2023-04-10T06:55:13;18.42;;;12.55;;
45684;SDS011;46836;48.388;16.210;2023-04-10T06:57:40;14.02;;;10.45;;
45684;SDS011;46836;48.388;16.210;2023-04-10T07:00:07;15.38;;;10.88;;
45684;SDS011;46836;48.388;16.210;2023-04-10T07:02:34;19.50;;;12.48;;
45684;SDS011;46836;48.388;16.210;2023-04-10T07:05:02;14.20;;;10.85;;
45684;SDS011;46836;48.388;16.210;2023-04-10T07:07:29;16.42;;;10.88;;
45684;SDS011;46836;48.388;16.210;2023-04-10T07:09:56;15.88;;;11.02;;
45684;SDS011;46836;48.388;16.210;2023-04-10T07:12:23;20.00;;;12.90;;
45684;SDS011;46836;48.388;16.210;2023-04-10T07:14:52;21.70;;;13.15;;
45684;SDS011;46836;48.388;16.210;2023-04-10T07:17:20;22.00;;;13.55;;
45684;SDS011;46836;48.388;16.210;2023-04-10T07:19:47;21.23;;;14.38;;
45684;SDS011;46836;48.388;16.210;2023-04-10T07:22:14;23.02;;;15.18;;
45684;SDS011;46836;48.388;16.210;2023-04-10T07:24:41;22.55;;;14.68;;
45684;SDS011;46836;48.388;16.210;2023-04-10T07:27:09;21.30;;;14.15;;
45684;SDS011;46836;48.388;16.210;2023-04-10T07:29:38;23.25;;;15.07;;
45684;SDS011;46836;48.388;16.210;2023-04-10T07:32:05;23.30;;;14.45;;
45684;SDS011;46836;48.388;16.210;2023-04-10T07:34:32;24.23;;;13.88;;
45684;SDS011;46836;48.388;16.210;2023-04-10T07:36:59;22.00;;;13.80;;
45684;SDS011;46836;48.388;16.210;2023-04-10T07:39:26;24.45;;;15.27;;
45684;SDS011;46836;48.388;16.210;2023-04-10T07:41:53;21.25;;;14.35;;
45684;SDS011;46836;48.388;16.210;2023-04-10T07:44:21;26.38;;;14.82;;
45684;SDS011;46836;48.388;16.210;2023-04-10T07:46:48;22.25;;;14.75;;
45684;SDS011;46836;48.388;16.210;2023-04-10T07:49:17;21.30;;;13.88;;
45684;SDS011;46836;48.388;16.210;2023-04-10T07:51:44;21.05;;;14.15;;
45684;SDS011;46836;48.388;16.210;2023-04-10T07:54:11;22.98;;;15.82;;
45684;SDS011;46836;48.388;16.210;2023-04-10T07:56:38;21.40;;;14.15;;
45684;SDS011;46836;48.388;16.210;2023-04-10T07:59:05;25.73;;;16.02;;
45684;SDS011;46836;48.388;16.210;2023-04-10T08:01:32;21.67;;;14.65;;
45684;SDS011;46836;48.388;16.210;2023-04-10T08:03:59;23.98;;;15.73;;
45684;SDS011;46836;48.388;16.210;2023-04-10T08:06:31;22.88;;;14.70;;
45684;SDS011;46836;48.388;16.210;2023-04-10T08:08:58;25.35;;;16.52;;
45684;SDS011;46836;48.388;16.210;2023-04-10T08:11:29;23.10;;;15.98;;
45684;SDS011;46836;48.388;16.210;2023-04-10T08:13:59;29.20;;;18.13;;
45684;SDS011;46836;48.388;16.210;2023-04-10T08:16:28;24.13;;;15.32;;
45684;SDS011;46836;48.388;16.210;2023-04-10T08:18:56;23.83;;;16.05;;
45684;SDS011;46836;48.388;16.210;2023-04-10T08:21:25;23.25;;;15.88;;
45684;SDS011;46836;48.388;16.210;2023-04-10T08:23:54;21.98;;;14.60;;
45684;SDS011;46836;48.388;16.210;2023-04-10T08:26:22;29.08;;;17.08;;
45684;SDS011;46836;48.388;16.210;2023-04-10T08:28:52;30.67;;;16.33;;
45684;SDS011;46836;48.388;16.210;2023-04-10T08:31:22;26.98;;;16.42;;
45684;SDS011;46836;48.388;16.210;2023-04-10T08:33:50;21.05;;;14.40;;
45684;SDS011;46836;48.388;16.210;2023-04-10T08:36:18;23.55;;;14.45;;
45684;SDS011;46836;48.388;16.210;2023-04-10T08:38:46;23.63;;;14.93;;
45684;SDS011;46836;48.388;16.210;2023-04-10T08:41:14;26.83;;;17.80;;
45684;SDS011;46836;48.388;16.210;2023-04-10T08:43:42;22.17;;;16.00;;
45684;SDS011;46836;48.388;16.210;2023-04-10T08:46:11;25.77;;;16.58;;
45684;SDS011;46836;48.388;16.210;2023-04-10T08:51:14;25.58;;;16.52;;
45684;SDS011;46836;48.388;16.210;2023-04-10T08:53:51;23.90;;;15.88;;
45684;SDS011;46836;48.388;16.210;2023-04-10T08:56:23;24.52;;;16.83;;
45684;SDS011;46836;48.388;16.210;2023-04-10T08:58:51;31.00;;;18.83;;
45684;SDS011;46836;48.388;16.210;2023-04-10T09:01:19;28.42;;;18.58;;
45684;SDS011;46836;48.388;16.210;2023-04-10T09:03:47;28.10;;;16.80;;
45684;SDS011;46836;48.388;16.210;2023-04-10T09:06:14;28.05;;;18.15;;
45684;SDS011;46836;48.388;16.210;2023-04-10T09:08:41;28.73;;;18.38;;
45684;SDS011;46836;48.388;16.210;2023-04-10T09:11:08;24.25;;;17.52;;
45684;SDS011;46836;48.388;16.210;2023-04-10T09:13:39;25.35;;;17.27;;
45684;SDS011;46836;48.388;16.210;2023-04-10T09:16:07;23.95;;;16.13;;
45684;SDS011;46836;48.388;16.210;2023-04-10T09:21:20;25.80;;;16.83;;
45684;SDS011;46836;48.388;16.210;2023-04-10T09:23:47;26.27;;;16.98;;
45684;SDS011;46836;48.388;16.210;2023-04-10T09:26:26;27.30;;;17.17;;
45684;SDS011;46836;48.388;16.210;2023-04-10T09:29:04;28.42;;;17.75;;
45684;SDS011;46836;48.388;16.210;2023-04-10T09:31:33;23.63;;;16.92;;
45684;SDS011;46836;48.388;16.210;2023-04-10T09:34:20;27.55;;;16.98;;
45684;SDS011;46836;48.388;16.210;2023-04-10T09:36:52;24.00;;;16.55;;
45684;SDS011;46836;48.388;16.210;2023-04-10T09:39:21;24.83;;;16.45;;
45684;SDS011;46836;48.388;16.210;2023-04-10T09:42:08;24.45;;;16.73;;
45684;SDS011;46836;48.388;16.210;2023-04-10T09:44:40;25.67;;;17.30;;
45684;SDS011;46836;48.388;16.210;2023-04-10T09:47:18;27.58;;;19.10;;
45684;SDS011;46836;48.388;16.210;2023-04-10T09:49:51;23.83;;;16.63;;
45684;SDS011;46836;48.388;16.210;2023-04-10T09:52:20;26.83;;;18.77;;
45684;SDS011;46836;48.388;16.210;2023-04-10T09:54:56;27.20;;;18.25;;
45684;SDS011;46836;48.388;16.210;2023-04-10T09:57:26;26.50;;;17.88;;
45684;SDS011;46836;48.388;16.210;2023-04-10T09:59:58;28.45;;;19.88;;
45684;SDS011;46836;48.388;16.210;2023-04-10T10:02:28;24.88;;;16.42;;
45684;SDS011;46836;48.388;16.210;2023-04-10T10:04:57;24.73;;;17.15;;
45684;SDS011;46836;48.388;16.210;2023-04-10T10:07:27;26.25;;;17.77;;
45684;SDS011;46836;48.388;16.210;2023-04-10T10:09:56;26.23;;;19.40;;
45684;SDS011;46836;48.388;16.210;2023-04-10T10:12:28;24.42;;;17.00;;
45684;SDS011;46836;48.388;16.210;2023-04-10T10:15:13;25.60;;;17.75;;
45684;SDS011;46836;48.388;16.210;2023-04-10T10:20:27;27.88;;;16.95;;
45684;SDS011;46836;48.388;16.210;2023-04-10T10:23:05;28.23;;;18.25;;
45684;SDS011;46836;48.388;16.210;2023-04-10T10:25:33;24.23;;;16.98;;
45684;SDS011;46836;48.388;16.210;2023-04-10T10:28:02;24.95;;;17.90;;
45684;SDS011;46836;48.388;16.210;2023-04-10T10:30:33;27.55;;;19.63;;
45684;SDS011;46836;48.388;16.210;2023-04-10T10:33:01;31.67;;;18.70;;
45684;SDS011;46836;48.388;16.210;2023-04-10T10:35:36;28.40;;;20.58;;
45684;SDS011;46836;48.388;16.210;2023-04-10T10:38:03;29.58;;;19.75;;
45684;SDS011;46836;48.388;16.210;2023-04-10T10:43:15;27.27;;;17.90;;
45684;SDS011;46836;48.388;16.210;2023-04-10T10:45:55;24.38;;;17.25;;
45684;SDS011;46836;48.388;16.210;2023-04-10T10:48:27;28.40;;;19.00;;
45684;SDS011;46836;48.388;16.210;2023-04-10T10:50:55;28.73;;;19.05;;
45684;SDS011;46836;48.388;16.210;2023-04-10T10:53:42;26.60;;;18.27;;
45684;SDS011;46836;48.388;16.210;2023-04-10T10:58:49;26.60;;;18.25;;
45684;SDS011;46836;48.388;16.210;2023-04-10T11:01:18;27.52;;;18.45;;
45684;SDS011;46836;48.388;16.210;2023-04-10T11:03:47;28.30;;;18.48;;
45684;SDS011;46836;48.388;16.210;2023-04-10T11:06:16;27.15;;;18.63;;
45684;SDS011;46836;48.388;16.210;2023-04-10T11:08:45;28.25;;;20.02;;
45684;SDS011;46836;48.388;16.210;2023-04-10T11:11:22;26.55;;;19.25;;
45684;SDS011;46836;48.388;16.210;2023-04-10T11:16:23;24.80;;;17.50;;
45684;SDS011;46836;48.388;16.210;2023-04-10T11:19:09;29.05;;;18.27;;
45684;SDS011;46836;48.388;16.210;2023-04-10T11:27:39;26.67;;;19.13;;
45684;SDS011;46836;48.388;16.210;2023-04-10T11:30:28;27.25;;;18.23;;
45684;SDS011;46836;48.388;16.210;2023-04-10T11:33:00;23.75;;;17.60;;
45684;SDS011;46836;48.388;16.210;2023-04-10T11:35:30;25.27;;;18.70;;
45684;SDS011;46836;48.388;16.210;2023-04-10T11:38:11;24.52;;;18.27;;
45684;SDS011;46836;48.388;16.210;2023-04-10T11:40:52;23.23;;;17.70;;
45684;SDS011;46836;48.388;16.210;2023-04-10T11:43:20;25.30;;;18.90;;
45684;SDS011;46836;48.388;16.210;2023-04-10T11:45:47;24.50;;;17.65;;
45684;SDS011;46836;48.388;16.210;2023-04-10T11:48:15;23.48;;;17.33;;
45684;SDS011;46836;48.388;16.210;2023-04-10T11:50:42;25.95;;;18.25;;
45684;SDS011;46836;48.388;16.210;2023-04-10T11:53:16;25.90;;;19.65;;
45684;SDS011;46836;48.388;16.210;2023-04-10T11:55:45;23.10;;;17.75;;
45684;SDS011;46836;48.388;16.210;2023-04-10T11:58:25;26.65;;;19.88;;
45684;SDS011;46836;48.388;16.210;2023-04-10T12:01:01;25.05;;;18.90;;
45684;SDS011;46836;48.388;16.210;2023-04-10T12:03:38;23.80;;;17.98;;
45684;SDS011;46836;48.388;16.210;2023-04-10T12:06:11;23.50;;;17.50;;
45684;SDS011;46836;48.388;16.210;2023-04-10T12:08:39;22.20;;;16.70;;
45684;SDS011;46836;48.388;16.210;2023-04-10T12:11:09;24.02;;;17.70;;
45684;SDS011;46836;48.388;16.210;2023-04-10T12:13:36;24.05;;;18.88;;
45684;SDS011;46836;48.388;16.210;2023-04-10T12:16:07;25.30;;;19.60;;
45684;SDS011;46836;48.388;16.210;2023-04-10T12:18:36;25.10;;;17.70;;
45684;SDS011;46836;48.388;16.210;2023-04-10T12:21:03;25.27;;;18.53;;
45684;SDS011;46836;48.388;16.210;2023-04-10T12:23:35;24.88;;;16.73;;
45684;SDS011;46836;48.388;16.210;2023-04-10T12:26:15;24.33;;;18.10;;
45684;SDS011;46836;48.388;16.210;2023-04-10T12:28:53;26.23;;;18.80;;
45684;SDS011;46836;48.388;16.210;2023-04-10T12:31:27;22.83;;;17.50;;
45684;SDS011;46836;48.388;16.210;2023-04-10T12:33:59;21.37;;;16.87;;
45684;SDS011;46836;48.388;16.210;2023-04-10T12:36:28;22.50;;;17.40;;
45684;SDS011;46836;48.388;16.210;2023-04-10T12:38:56;22.43;;;17.10;;
45684;SDS011;46836;48.388;16.210;2023-04-10T12:41:25;23.30;;;16.70;;
45684;SDS011;46836;48.388;16.210;2023-04-10T12:44:11;22.17;;;17.00;;
45684;SDS011;46836;48.388;16.210;2023-04-10T12:46:39;23.40;;;17.63;;
45684;SDS011;46836;48.388;16.210;2023-04-10T12:49:12;23.70;;;17.87;;
45684;SDS011;46836;48.388;16.210;2023-04-10T12:51:47;26.10;;;19.13;;
45684;SDS011;46836;48.388;16.210;2023-04-10T12:54:29;24.23;;;18.33;;
45684;SDS011;46836;48.388;16.210;2023-04-10T12:56:57;25.10;;;17.67;;
45684;SDS011;46836;48.388;16.210;2023-04-10T12:59:24;22.20;;;17.53;;
45684;SDS011;46836;48.388;16.210;2023-04-10T13:01:52;21.53;;;16.93;;
45684;SDS011;46836;48.388;16.210;2023-04-10T13:04:20;22.70;;;17.63;;
45684;SDS011;46836;48.388;16.210;2023-04-10T13:06:48;23.37;;;18.23;;
45684;SDS011;46836;48.388;16.210;2023-04-10T13:09:18;22.87;;;17.60;;
45684;SDS011;46836;48.388;16.210;2023-04-10T13:11:45;22.33;;;17.30;;
45684;SDS011;46836;48.388;16.210;2023-04-10T13:14:15;21.10;;;17.00;;
45684;SDS011;46836;48.388;16.210;2023-04-10T13:16:43;25.47;;;17.30;;
45684;SDS011;46836;48.388;16.210;2023-04-10T13:19:10;23.10;;;17.97;;
45684;SDS011;46836;48.388;16.210;2023-04-10T13:21:38;23.37;;;18.10;;
45684;SDS011;46836;48.388;16.210;2023-04-10T13:24:05;23.97;;;17.47;;
45684;SDS011;46836;48.388;16.210;2023-04-10T13:26:32;22.70;;;16.80;;
45684;SDS011;46836;48.388;16.210;2023-04-10T13:28:59;22.77;;;17.30;;
45684;SDS011;46836;48.388;16.210;2023-04-10T13:31:26;20.90;;;16.30;;
45684;SDS011;46836;48.388;16.210;2023-04-10T13:33:53;21.43;;;16.70;;
45684;SDS011;46836;48.388;16.210;2023-04-10T13:36:20;23.30;;;17.40;;
45684;SDS011;46836;48.388;16.210;2023-04-10T13:38:47;21.43;;;16.30;;
45684;SDS011;46836;48.388;16.210;2023-04-10T13:41:14;21.23;;;16.07;;
45684;SDS011;46836;48.388;16.210;2023-04-10T13:43:41;23.23;;;16.80;;
45684;SDS011;46836;48.388;16.210;2023-04-10T13:46:08;21.23;;;15.57;;
45684;SDS011;46836;48.388;16.210;2023-04-10T13:48:35;22.03;;;15.60;;
45684;SDS011;46836;48.388;16.210;2023-04-10T13:51:06;25.10;;;15.77;;
45684;SDS011;46836;48.388;16.210;2023-04-10T13:53:34;19.83;;;14.87;;
45684;SDS011;46836;48.388;16.210;2023-04-10T13:56:01;21.80;;;15.93;;
45684;SDS011;46836;48.388;16.210;2023-04-10T13:58:28;25.10;;;17.43;;
45684;SDS011;46836;48.388;16.210;2023-04-10T14:00:57;21.43;;;15.07;;
45684;SDS011;46836;48.388;16.210;2023-04-10T14:03:25;20.17;;;15.27;;
45684;SDS011;46836;48.388;16.210;2023-04-10T14:05:52;21.00;;;16.00;;
45684;SDS011;46836;48.388;16.210;2023-04-10T14:08:19;20.90;;;15.27;;
45684;SDS011;46836;48.388;16.210;2023-04-10T14:10:46;19.57;;;14.90;;
45684;SDS011;46836;48.388;16.210;2023-04-10T14:13:16;17.03;;;12.83;;
45684;SDS011;46836;48.388;16.210;2023-04-10T14:15:43;21.03;;;14.63;;
45684;SDS011;46836;48.388;16.210;2023-04-10T14:18:11;22.90;;;15.57;;
45684;SDS011;46836;48.388;16.210;2023-04-10T14:20:40;18.33;;;14.05;;
45684;SDS011;46836;48.388;16.210;2023-04-10T14:23:07;19.67;;;14.93;;
45684;SDS011;46836;48.388;16.210;2023-04-10T14:25:35;19.87;;;14.33;;
45684;SDS011;46836;48.388;16.210;2023-04-10T14:28:02;19.47;;;14.53;;
45684;SDS011;46836;48.388;16.210;2023-04-10T14:30:29;18.80;;;15.13;;
45684;SDS011;46836;48.388;16.210;2023-04-10T14:32:57;21.88;;;15.18;;
45684;SDS011;46836;48.388;16.210;2023-04-10T14:35:25;21.98;;;14.88;;
45684;SDS011;46836;48.388;16.210;2023-04-10T14:37:52;19.15;;;13.88;;
45684;SDS011;46836;48.388;16.210;2023-04-10T14:40:19;18.10;;;13.77;;
45684;SDS011;46836;48.388;16.210;2023-04-10T14:42:46;19.15;;;14.20;;
45684;SDS011;46836;48.388;16.210;2023-04-10T14:45:13;19.13;;;13.55;;
45684;SDS011;46836;48.388;16.210;2023-04-10T14:47:40;18.80;;;14.13;;
45684;SDS011;46836;48.388;16.210;2023-04-10T14:50:07;15.93;;;12.20;;
45684;SDS011;46836;48.388;16.210;2023-04-10T14:52:35;19.42;;;14.55;;
45684;SDS011;46836;48.388;16.210;2023-04-10T14:55:02;19.60;;;14.68;;
45684;SDS011;46836;48.388;16.210;2023-04-10T14:57:29;19.40;;;13.67;;